createdAt,value
2023-04-05T00:01:50.164Z,6.20
2023-04-05T00:04:21.256Z,6.20
2023-04-05T00:06:53.073Z,6.20
2023-04-05T00:09:21.084Z,6.20
2023-04-05T00:11:48.461Z,6.10
2023-04-05T00:14:15.588Z,6.10
2023-04-05T00:16:42.718Z,6.10
2023-04-05T00:19:12.868Z,6.10
2023-04-05T00:21:39.895Z,6.10
2023-04-05T00:24:07.847Z,6.10
2023-04-05T00:26:36.257Z,6.10
2023-04-05T00:29:03.240Z,6.00
2023-04-05T00:31:30.677Z,6.00
2023-04-05T00:33:57.649Z,6.00
2023-04-05T00:36:24.710Z,6.00
2023-04-05T00:38:51.517Z,6.00
2023-04-05T00:41:18.528Z,6.20
2023-04-05T00:43:46.235Z,6.00
2023-04-05T00:46:13.132Z,6.00
2023-04-05T00:48:40.386Z,5.90
2023-04-05T00:51:09.639Z,5.90
2023-04-05T00:53:37.464Z,5.90
2023-04-05T00:56:04.877Z,5.90
2023-04-05T00:58:31.841Z,5.90
2023-04-05T01:01:27.914Z,5.90
2023-04-05T01:04:03.608Z,5.90
2023-04-05T01:06:49.077Z,5.80
2023-04-05T01:09:38.695Z,5.80
2023-04-05T01:12:09.998Z,5.80
2023-04-05T01:14:51.446Z,5.80
2023-04-05T01:17:22.356Z,5.70
2023-04-05T01:19:59.006Z,5.70
2023-04-05T01:22:47.403Z,5.60
2023-04-05T01:25:37.081Z,5.60
2023-04-05T01:28:19.815Z,5.60
2023-04-05T01:30:57.495Z,5.60
2023-04-05T01:33:24.220Z,5.50
2023-04-05T01:36:01.450Z,5.50
2023-04-05T01:38:29.533Z,5.50
2023-04-05T01:40:56.450Z,5.50
2023-04-05T01:43:23.403Z,5.40
2023-04-05T01:45:50.344Z,5.40
2023-04-05T01:48:17.184Z,5.40
2023-04-05T01:50:44.218Z,5.40
2023-04-05T01:53:11.072Z,5.40
2023-04-05T01:55:37.901Z,5.40
2023-04-05T01:58:04.622Z,5.30
2023-04-05T02:00:31.451Z,5.30
2023-04-05T02:02:58.485Z,5.30
2023-04-05T02:05:25.293Z,5.30
2023-04-05T02:07:52.310Z,5.30
2023-04-05T02:10:20.104Z,5.30
2023-04-05T02:12:46.999Z,5.30
2023-04-05T02:15:14.020Z,5.20
2023-04-05T02:17:46.250Z,5.20
2023-04-05T02:20:14.823Z,5.20
2023-04-05T02:22:44.998Z,5.20
2023-04-05T02:25:12.862Z,5.20
2023-04-05T02:27:40.467Z,5.20
2023-04-05T02:30:07.884Z,5.10
2023-04-05T02:32:34.788Z,5.10
2023-04-05T02:35:01.796Z,5.10
2023-04-05T02:37:28.714Z,5.10
2023-04-05T02:39:55.642Z,5.10
2023-04-05T02:42:22.459Z,5.00
2023-04-05T02:44:49.261Z,5.00
2023-04-05T02:47:21.274Z,5.00
2023-04-05T02:49:51.397Z,5.00
2023-04-05T02:52:18.067Z,5.00
2023-04-05T02:54:46.199Z,5.00
2023-04-05T02:57:14.016Z,4.90
2023-04-05T02:59:40.911Z,4.90
2023-04-05T03:02:08.970Z,4.90
2023-04-05T03:04:35.702Z,4.90
2023-04-05T03:07:03.597Z,4.90
2023-04-05T03:09:34.720Z,4.90
2023-04-05T03:12:04.305Z,4.90
2023-04-05T03:14:31.719Z,4.80
2023-04-05T03:16:58.687Z,4.80
2023-04-05T03:19:26.401Z,4.80
2023-04-05T03:21:53.652Z,4.80
2023-04-05T03:24:20.633Z,4.70
2023-04-05T03:26:48.679Z,4.70
2023-04-05T03:29:16.687Z,4.70
2023-04-05T03:31:43.718Z,4.70
2023-04-05T03:34:10.584Z,4.70
2023-04-05T03:36:43.243Z,4.60
2023-04-05T03:39:11.401Z,4.60
2023-04-05T03:41:39.243Z,4.60
2023-04-05T03:44:06.504Z,4.60
2023-04-05T03:46:33.725Z,4.50
2023-04-05T03:49:01.576Z,4.50
2023-04-05T03:51:28.273Z,4.50
2023-04-05T03:53:55.315Z,4.50
2023-04-05T03:56:22.124Z,4.40
2023-04-05T03:58:49.094Z,4.40
2023-04-05T04:01:15.904Z,4.40
2023-04-05T04:03:42.654Z,4.40
2023-04-05T04:06:09.558Z,4.40
2023-04-05T04:08:36.322Z,4.30
2023-04-05T04:11:03.548Z,4.30
2023-04-05T04:13:30.434Z,4.30
2023-04-05T04:15:57.219Z,4.30
2023-04-05T04:18:24.040Z,4.20
2023-04-05T04:20:52.370Z,4.20
2023-04-05T04:23:19.595Z,4.20
2023-04-05T04:25:46.622Z,4.20
2023-04-05T04:28:13.798Z,4.10
2023-04-05T04:30:43.468Z,4.10
2023-04-05T04:33:10.358Z,4.10
2023-04-05T04:35:40.109Z,4.10
2023-04-05T04:38:08.259Z,4.10
2023-04-05T04:40:39.041Z,4.10
2023-04-05T04:43:09.904Z,4.10
2023-04-05T04:45:37.994Z,4.00
2023-04-05T04:48:05.271Z,4.00
2023-04-05T04:50:32.912Z,4.00
2023-04-05T04:53:00.568Z,4.00
2023-04-05T04:55:28.125Z,3.90
2023-04-05T04:57:55.934Z,3.90
2023-04-05T05:00:23.905Z,3.90
2023-04-05T05:02:52.469Z,4.00
2023-04-05T05:05:23.402Z,3.90
2023-04-05T05:07:50.632Z,3.90
2023-04-05T05:10:18.845Z,3.90
2023-04-05T05:12:45.898Z,3.90
2023-04-05T05:15:12.774Z,3.90
2023-04-05T05:17:39.653Z,3.90
2023-04-05T05:20:10.743Z,3.90
2023-04-05T05:22:38.859Z,3.90
2023-04-05T05:25:06.788Z,3.90
2023-04-05T05:27:36.784Z,3.80
2023-04-05T05:30:04.894Z,3.80
2023-04-05T05:32:31.711Z,3.80
2023-04-05T05:34:58.452Z,3.80
2023-04-05T05:37:34.582Z,3.90
2023-04-05T05:40:01.566Z,3.90
2023-04-05T05:42:28.453Z,3.80
2023-04-05T05:44:55.314Z,3.80
2023-04-05T05:47:22.197Z,3.90
2023-04-05T05:49:49.820Z,3.90
2023-04-05T05:52:16.852Z,3.90
2023-04-05T05:54:43.611Z,4.00
2023-04-05T05:57:10.411Z,4.00
2023-04-05T05:59:37.205Z,4.00
2023-04-05T06:02:04.173Z,4.10
2023-04-05T06:04:31.256Z,4.10
2023-04-05T06:06:58.364Z,4.20
2023-04-05T06:09:25.799Z,4.20
2023-04-05T06:11:56.921Z,4.20
2023-04-05T06:14:25.242Z,4.20
2023-04-05T06:16:52.353Z,4.30
2023-04-05T06:19:19.171Z,4.30
2023-04-05T06:21:45.945Z,4.40
2023-04-05T06:24:12.738Z,4.40
2023-04-05T06:26:39.421Z,4.40
2023-04-05T06:29:06.327Z,4.40
2023-04-05T06:31:35.845Z,4.40
2023-04-05T06:34:02.951Z,4.50
2023-04-05T06:36:33.992Z,4.50
2023-04-05T06:39:00.975Z,4.50
2023-04-05T06:41:28.035Z,4.60
2023-04-05T06:43:55.917Z,4.60
2023-04-05T06:46:23.526Z,4.70
2023-04-05T06:48:51.608Z,4.70
2023-04-05T06:51:19.079Z,4.70
2023-04-05T06:53:45.858Z,4.70
2023-04-05T06:56:12.752Z,4.80
2023-04-05T06:58:39.518Z,4.80
2023-04-05T07:01:06.635Z,4.80
2023-04-05T07:03:34.060Z,4.90
2023-04-05T07:06:01.518Z,4.90
2023-04-05T07:08:29.506Z,4.90
2023-04-05T07:10:56.331Z,5.00
2023-04-05T07:13:24.913Z,5.00
2023-04-05T07:15:53.163Z,5.10
2023-04-05T07:18:20.425Z,5.10
2023-04-05T07:20:52.207Z,5.20
2023-04-05T07:23:19.996Z,5.20
2023-04-05T07:25:47.521Z,5.30
2023-04-05T07:28:14.295Z,5.30
2023-04-05T07:30:41.314Z,5.30
2023-04-05T07:33:08.391Z,5.40
2023-04-05T07:35:35.305Z,5.40
2023-04-05T07:38:02.218Z,5.50
2023-04-05T07:40:28.975Z,5.60
2023-04-05T07:42:55.764Z,5.60
2023-04-05T07:45:22.457Z,5.60
2023-04-05T07:47:49.372Z,5.70
2023-04-05T07:50:16.265Z,5.70
2023-04-05T07:52:43.035Z,5.80
2023-04-05T07:55:10.435Z,5.80
2023-04-05T07:57:37.757Z,5.80
2023-04-05T08:00:10.356Z,5.90
2023-04-05T08:02:37.145Z,6.00
2023-04-05T08:05:04.444Z,6.10
2023-04-05T08:07:31.394Z,6.10
2023-04-05T08:09:59.357Z,6.20
2023-04-05T08:12:26.925Z,6.20
2023-04-05T08:14:53.901Z,6.30
2023-04-05T08:17:20.756Z,6.30
2023-04-05T08:19:47.579Z,6.30
2023-04-05T08:22:16.510Z,6.30
2023-04-05T08:24:43.276Z,6.40
2023-04-05T08:27:10.041Z,6.40
2023-04-05T08:29:37.447Z,6.50
2023-04-05T08:32:04.693Z,6.60
2023-04-05T08:34:31.469Z,6.60
2023-04-05T08:37:00.256Z,6.70
2023-04-05T08:39:27.241Z,6.80
2023-04-05T08:42:07.960Z,6.80
2023-04-05T08:44:37.367Z,6.90
2023-04-05T08:47:04.229Z,7.00
2023-04-05T08:49:31.069Z,7.00
2023-04-05T08:52:01.051Z,7.10
2023-04-05T08:54:27.881Z,7.20
2023-04-05T08:56:56.567Z,7.30
2023-04-05T08:59:24.702Z,7.30
2023-04-05T09:01:52.779Z,7.40
2023-04-05T09:04:23.374Z,7.60
2023-04-05T09:06:52.222Z,7.60
2023-04-05T09:09:21.429Z,7.70
2023-04-05T09:11:49.064Z,7.70
2023-04-05T09:14:17.511Z,7.80
2023-04-05T09:16:44.521Z,7.90
2023-04-05T09:19:11.494Z,7.90
2023-04-05T09:22:05.170Z,8.00
2023-04-05T09:24:39.371Z,8.10
2023-04-05T09:27:06.364Z,8.10
2023-04-05T09:29:33.455Z,8.20
2023-04-05T09:32:02.862Z,8.20
2023-04-05T09:34:33.412Z,8.30
2023-04-05T09:37:01.044Z,8.40
2023-04-05T09:39:32.881Z,8.40
2023-04-05T09:42:22.933Z,8.50
2023-04-05T09:45:05.068Z,8.60
2023-04-05T09:47:36.830Z,8.70
2023-04-05T09:50:17.790Z,8.80
2023-04-05T09:52:44.994Z,8.80
2023-04-05T09:55:12.386Z,8.90
2023-04-05T09:57:41.172Z,9.00
2023-04-05T10:00:19.317Z,9.10
2023-04-05T10:02:49.445Z,9.20
2023-04-05T10:05:16.500Z,9.30
2023-04-05T10:07:44.408Z,9.40
2023-04-05T10:10:12.953Z,9.40
2023-04-05T10:12:41.717Z,9.50
2023-04-05T10:15:09.513Z,9.60
2023-04-05T10:17:49.317Z,9.60
2023-04-05T10:20:18.434Z,9.70
2023-04-05T10:22:57.436Z,9.90
2023-04-05T10:25:49.284Z,10.00
2023-04-05T10:28:33.810Z,10.10
2023-04-05T10:31:36.865Z,10.10
2023-04-05T10:34:06.413Z,10.20
2023-04-05T10:36:38.289Z,10.20
2023-04-05T10:39:12.993Z,10.30
2023-04-05T10:41:49.075Z,10.50
2023-04-05T10:44:25.523Z,10.70
2023-04-05T10:46:54.865Z,10.70
2023-04-05T10:49:39.204Z,10.90
2023-04-05T10:52:06.651Z,11.00
2023-04-05T10:54:36.609Z,11.10
2023-04-05T10:57:08.987Z,11.20
2023-04-05T10:59:42.088Z,11.20
2023-04-05T11:02:09.627Z,11.30
2023-04-05T11:04:37.686Z,11.30
2023-04-05T11:07:19.533Z,11.40
2023-04-05T11:10:03.081Z,11.40
2023-04-05T11:12:48.355Z,11.50
2023-04-05T11:15:30.288Z,11.60
2023-04-05T11:18:16.082Z,11.80
2023-04-05T11:20:56.067Z,12.10
2023-04-05T11:23:24.826Z,12.20
2023-04-05T11:25:54.103Z,12.30
2023-04-05T11:28:42.896Z,12.40
2023-04-05T11:31:18.360Z,12.50
2023-04-05T11:33:54.798Z,12.60
2023-04-05T11:36:42.300Z,12.80
2023-04-05T11:39:18.569Z,12.80
2023-04-05T11:41:47.497Z,12.80
2023-04-05T11:44:15.307Z,13.00
2023-04-05T11:46:48.434Z,13.00
2023-04-05T11:49:16.032Z,12.90
2023-04-05T11:51:43.637Z,12.90
2023-04-05T11:54:10.835Z,12.90
2023-04-05T11:56:37.762Z,13.10
2023-04-05T11:59:04.660Z,13.30
2023-04-05T12:01:31.482Z,13.50
2023-04-05T12:03:58.406Z,13.70
2023-04-05T12:06:26.477Z,13.70
2023-04-05T12:08:53.579Z,13.80
2023-04-05T12:11:28.171Z,14.10
2023-04-05T12:13:59.890Z,14.30
2023-04-05T12:16:27.280Z,14.50
2023-04-05T12:18:58.823Z,14.70
2023-04-05T12:21:26.533Z,14.90
2023-04-05T12:23:53.930Z,14.90
2023-04-05T12:26:24.019Z,14.80
2023-04-05T12:28:51.550Z,14.80
2023-04-05T12:31:18.360Z,14.90
2023-04-05T12:33:45.511Z,14.90
2023-04-05T12:36:15.467Z,15.00
2023-04-05T12:38:42.317Z,14.90
2023-04-05T12:41:09.296Z,15.00
2023-04-05T12:43:43.111Z,15.10
2023-04-05T12:46:19.635Z,15.30
2023-04-05T12:48:51.764Z,15.40
2023-04-05T12:51:18.560Z,15.50
2023-04-05T12:53:48.245Z,15.70
2023-04-05T12:56:16.552Z,15.60
2023-04-05T12:58:43.699Z,15.50
2023-04-05T13:01:10.919Z,15.50
2023-04-05T13:03:37.903Z,15.50
2023-04-05T13:06:04.687Z,15.50
2023-04-05T13:08:31.580Z,15.30
2023-04-05T13:10:58.482Z,15.20
2023-04-05T13:13:25.443Z,15.20
2023-04-05T13:15:52.689Z,15.30
2023-04-05T13:18:19.704Z,15.40
2023-04-05T13:20:46.569Z,15.60
2023-04-05T13:23:13.562Z,15.70
2023-04-05T13:25:42.444Z,15.90
2023-04-05T13:28:09.942Z,16.00
2023-04-05T13:30:37.051Z,16.10
2023-04-05T13:33:04.844Z,16.20
2023-04-05T13:35:32.074Z,16.20
2023-04-05T13:38:00.550Z,16.30
2023-04-05T13:40:28.743Z,16.30
2023-04-05T13:42:55.638Z,16.30
2023-04-05T13:45:22.643Z,16.20
2023-04-05T13:47:49.660Z,16.30
2023-04-05T13:50:16.670Z,16.40
2023-04-05T13:52:44.269Z,16.50
2023-04-05T13:55:11.052Z,16.50
2023-04-05T13:57:37.826Z,16.40
2023-04-05T14:00:06.620Z,16.20
2023-04-05T14:02:33.684Z,16.30
2023-04-05T14:05:00.626Z,16.30
2023-04-05T14:07:27.852Z,16.30
2023-04-05T14:09:54.606Z,16.40
2023-04-05T14:12:21.453Z,16.30
2023-04-05T14:14:48.269Z,16.30
2023-04-05T14:17:15.175Z,16.30
2023-04-05T14:19:41.916Z,16.40
2023-04-05T14:22:09.012Z,16.40
2023-04-05T14:24:35.972Z,16.40
2023-04-05T14:27:02.860Z,16.40
2023-04-05T14:29:29.689Z,16.40
2023-04-05T14:31:56.781Z,16.30
2023-04-05T14:34:23.659Z,16.30
2023-04-05T14:36:50.828Z,16.30
2023-04-05T14:39:18.028Z,16.30
2023-04-05T14:41:50.154Z,16.30
2023-04-05T14:44:17.041Z,16.30
2023-04-05T14:46:44.020Z,16.30
2023-04-05T14:49:11.079Z,16.30
2023-04-05T14:51:37.949Z,16.30
2023-04-05T14:54:05.001Z,16.30
2023-04-05T14:56:31.811Z,16.30
2023-04-05T14:58:58.753Z,16.30
2023-04-05T15:01:25.858Z,16.30
2023-04-05T15:03:53.941Z,16.30
2023-04-05T15:06:20.874Z,16.30
2023-04-05T15:08:47.648Z,16.30
2023-04-05T15:11:14.498Z,16.30
2023-04-05T15:13:41.308Z,16.20
2023-04-05T15:16:08.208Z,16.20
2023-04-05T15:18:35.075Z,16.20
2023-04-05T15:21:02.068Z,16.20
2023-04-05T15:23:28.941Z,16.20
2023-04-05T15:25:55.876Z,16.10
2023-04-05T15:28:22.623Z,16.10
2023-04-05T15:30:51.264Z,16.10
2023-04-05T15:33:18.185Z,16.10
2023-04-05T15:35:45.427Z,16.00
2023-04-05T15:38:12.294Z,15.90
2023-04-05T15:40:40.173Z,15.80
2023-04-05T15:43:07.072Z,15.80
2023-04-05T15:45:33.822Z,15.80
2023-04-05T15:48:00.857Z,15.70
2023-04-05T15:50:27.752Z,15.60
2023-04-05T15:52:55.012Z,15.60
2023-04-05T15:55:21.875Z,15.50
2023-04-05T15:57:53.705Z,15.50
2023-04-05T16:00:22.409Z,15.40
2023-04-05T16:02:49.912Z,15.20
2023-04-05T16:05:17.006Z,15.10
2023-04-05T16:07:44.700Z,15.10
2023-04-05T16:10:12.012Z,14.90
2023-04-05T16:12:38.843Z,14.80
2023-04-05T16:15:06.102Z,14.70
2023-04-05T16:17:33.000Z,14.60
2023-04-05T16:20:00.106Z,14.40
2023-04-05T16:22:27.105Z,14.30
2023-04-05T16:24:54.179Z,14.30
2023-04-05T16:27:21.000Z,14.20
2023-04-05T16:29:47.966Z,14.10
2023-04-05T16:32:14.969Z,14.10
2023-04-05T16:34:42.666Z,14.00
2023-04-05T16:37:09.571Z,14.00
2023-04-05T16:39:36.693Z,13.90
2023-04-05T16:42:04.030Z,13.80
2023-04-05T16:44:32.263Z,13.70
2023-04-05T16:46:59.397Z,13.70
2023-04-05T16:49:26.161Z,13.60
2023-04-05T16:51:53.467Z,13.50
2023-04-05T16:54:21.611Z,13.50
2023-04-05T16:56:48.552Z,13.40
2023-04-05T16:59:15.476Z,13.40
2023-04-05T17:01:42.633Z,13.40
2023-04-05T17:04:09.548Z,13.30
2023-04-05T17:06:36.353Z,13.30
2023-04-05T17:09:04.266Z,13.20
2023-04-05T17:11:31.663Z,13.20
2023-04-05T17:13:59.492Z,13.10
2023-04-05T17:16:26.702Z,13.10
2023-04-05T17:18:53.746Z,13.10
2023-04-05T17:21:21.011Z,13.00
2023-04-05T17:23:47.837Z,13.40
2023-04-05T17:26:14.884Z,13.70
2023-04-05T17:28:41.720Z,14.20
2023-04-05T17:31:08.621Z,14.50
2023-04-05T17:33:35.448Z,14.50
2023-04-05T17:36:02.966Z,14.30
2023-04-05T17:38:29.858Z,14.20
2023-04-05T17:40:57.787Z,14.00
2023-04-05T17:43:26.416Z,13.80
2023-04-05T17:45:54.555Z,13.60
2023-04-05T17:48:21.763Z,13.50
2023-04-05T17:50:48.769Z,13.30
2023-04-05T17:53:16.633Z,13.20
2023-04-05T17:55:43.878Z,13.00
2023-04-05T17:58:10.951Z,12.90
2023-04-05T18:00:37.899Z,12.80
2023-04-05T18:03:08.254Z,12.60
2023-04-05T18:05:35.610Z,12.50
2023-04-05T18:08:02.453Z,12.40
2023-04-05T18:10:29.309Z,12.30
2023-04-05T18:12:56.425Z,12.20
2023-04-05T18:15:23.425Z,12.20
2023-04-05T18:17:50.313Z,12.10
2023-04-05T18:20:17.361Z,12.00
2023-04-05T18:22:44.162Z,12.00
2023-04-05T18:25:11.862Z,11.90
2023-04-05T18:27:39.628Z,11.80
2023-04-05T18:30:07.320Z,11.70
2023-04-05T18:32:34.272Z,11.70
2023-04-05T18:35:01.489Z,11.60
2023-04-05T18:37:28.316Z,11.60
2023-04-05T18:39:55.406Z,11.50
2023-04-05T18:42:22.242Z,11.50
2023-04-05T18:44:49.427Z,11.40
2023-04-05T18:47:16.410Z,11.30
2023-04-05T18:49:43.350Z,11.30
2023-04-05T18:52:10.676Z,11.30
2023-04-05T18:54:39.804Z,11.20
2023-04-05T18:57:10.176Z,11.20
2023-04-05T18:59:37.133Z,11.20
2023-04-05T19:02:05.040Z,11.10
2023-04-05T19:04:32.352Z,11.10
2023-04-05T19:06:59.415Z,11.10
2023-04-05T19:09:27.304Z,11.00
2023-04-05T19:11:54.308Z,11.00
2023-04-05T19:14:21.486Z,11.00
2023-04-05T19:16:49.450Z,10.90
2023-04-05T19:19:16.916Z,10.90
2023-04-05T19:21:43.948Z,10.80
2023-04-05T19:24:14.037Z,10.80
2023-04-05T19:26:43.185Z,10.80
2023-04-05T19:29:10.678Z,10.70
2023-04-05T19:31:38.162Z,10.70
2023-04-05T19:34:06.581Z,10.60
2023-04-05T19:36:37.734Z,10.60
2023-04-05T19:39:06.357Z,10.50
2023-04-05T19:41:33.524Z,10.50
2023-04-05T19:44:01.069Z,10.40
2023-04-05T19:46:31.579Z,10.40
2023-04-05T19:49:09.084Z,10.40
2023-04-05T19:51:36.612Z,10.30
2023-04-05T19:54:11.990Z,10.30
2023-04-05T19:56:39.680Z,10.20
2023-04-05T19:59:12.398Z,10.20
2023-04-05T20:01:41.227Z,10.20
2023-04-05T20:04:19.369Z,10.20
2023-04-05T20:06:52.914Z,10.10
2023-04-05T20:09:29.397Z,10.10
2023-04-05T20:12:01.886Z,10.10
2023-04-05T20:14:31.490Z,10.00
2023-04-05T20:16:58.942Z,10.00
2023-04-05T20:19:31.176Z,10.00
2023-04-05T20:22:02.762Z,9.90
2023-04-05T20:24:29.855Z,9.90
2023-04-05T20:26:59.767Z,9.90
2023-04-05T20:29:28.633Z,9.80
2023-04-05T20:31:55.598Z,9.80
2023-04-05T20:34:33.855Z,9.80
2023-04-05T20:37:08.018Z,9.70
2023-04-05T20:39:35.627Z,9.70
2023-04-05T20:42:03.784Z,9.70
2023-04-05T20:44:30.581Z,9.60
2023-04-05T20:46:58.107Z,9.60
2023-04-05T20:49:25.299Z,9.60
2023-04-05T20:51:54.789Z,9.50
2023-04-05T20:54:22.486Z,9.40
2023-04-05T20:56:49.315Z,9.40
2023-04-05T20:59:16.686Z,9.40
2023-04-05T21:01:43.665Z,9.30
2023-04-05T21:04:10.705Z,9.30
2023-04-05T21:06:37.823Z,9.20
2023-04-05T21:09:04.856Z,9.20
2023-04-05T21:11:31.842Z,9.20
2023-04-05T21:13:58.648Z,9.10
2023-04-05T21:16:25.591Z,9.10
2023-04-05T21:18:52.487Z,9.00
2023-04-05T21:21:19.303Z,8.90
2023-04-05T21:23:46.148Z,8.90
2023-04-05T21:26:12.954Z,8.90
2023-04-05T21:28:39.734Z,8.90
2023-04-05T21:31:06.935Z,8.80
2023-04-05T21:33:33.848Z,8.70
2023-04-05T21:36:00.849Z,8.70
2023-04-05T21:38:27.898Z,8.70
2023-04-05T21:40:55.695Z,8.70
2023-04-05T21:43:22.809Z,8.70
2023-04-05T21:45:49.658Z,8.70
2023-04-05T21:48:16.547Z,8.60
2023-04-05T21:50:43.383Z,8.60
2023-04-05T21:53:10.351Z,8.60
2023-04-05T21:55:37.285Z,8.60
2023-04-05T21:58:04.074Z,8.50
2023-04-05T22:00:30.891Z,8.50
2023-04-05T22:02:57.926Z,8.50
2023-04-05T22:05:34.552Z,8.40
2023-04-05T22:08:03.929Z,8.40
2023-04-05T22:10:30.864Z,8.40
2023-04-05T22:12:57.704Z,8.30
2023-04-05T22:15:24.625Z,8.30
2023-04-05T22:17:51.451Z,8.30
2023-04-05T22:20:18.364Z,8.30
2023-04-05T22:22:45.178Z,8.20
2023-04-05T22:25:12.061Z,8.20
2023-04-05T22:27:39.427Z,8.20
2023-04-05T22:30:08.016Z,8.10
2023-04-05T22:32:35.654Z,8.10
2023-04-05T22:35:04.212Z,8.10
2023-04-05T22:37:35.563Z,8.00
2023-04-05T22:40:04.022Z,8.00
2023-04-05T22:42:30.767Z,7.90
2023-04-05T22:44:57.577Z,7.90
2023-04-05T22:47:24.592Z,7.80
2023-04-05T22:49:51.995Z,7.80
2023-04-05T22:52:19.020Z,7.80
2023-04-05T22:54:46.014Z,7.80
2023-04-05T22:57:13.110Z,7.70
2023-04-05T22:59:39.985Z,7.70
2023-04-05T23:02:06.815Z,7.70
2023-04-05T23:04:33.639Z,7.70
2023-04-05T23:07:00.522Z,7.60
2023-04-05T23:09:27.660Z,7.60
2023-04-05T23:11:54.473Z,7.60
2023-04-05T23:14:21.787Z,7.60
2023-04-05T23:16:48.659Z,7.60
2023-04-05T23:19:16.503Z,7.60
2023-04-05T23:21:43.320Z,7.50
2023-04-05T23:24:10.821Z,7.50
2023-04-05T23:26:37.776Z,7.50
2023-04-05T23:29:04.587Z,7.50
2023-04-05T23:31:31.375Z,7.40
2023-04-05T23:33:58.215Z,7.40
2023-04-05T23:36:25.243Z,7.40
2023-04-05T23:38:52.019Z,7.30
2023-04-05T23:41:18.873Z,7.30
2023-04-05T23:43:46.212Z,7.30
2023-04-05T23:46:13.512Z,7.20
2023-04-05T23:48:40.311Z,7.20
2023-04-05T23:51:07.129Z,7.20
2023-04-05T23:53:33.974Z,7.20
2023-04-05T23:56:01.009Z,7.20
2023-04-05T23:58:28.248Z,7.10
